Pagrindinis puslapis
METAR-TAF:

METAR-TAF

Oro uostai :

Konstantina, Alžyras

platuma: 36-17N, ilguma: 006-37E, Aukštis: 694 m

Dabartinis oras

Ataskaita buvo paskelbta 1 valandą ir 29 minutes, ne 23:00 UTC
Vėjas 4 kt iš Pietų
Temperatūra 26°C
Drėgmė 28%
Slėgis 1021 hPa
Matomumas 10 km arba daugiau
nėra debesų žemiau 1500 m ir nėra kamuolinių lietaus debesų

METAR: DABC 182300Z 19004KT CAVOK 26/06 Q1021

Laikas: 01:29 (00:29 UTC)

Prognozė

Ataskaita buvo paskelbta 1 valandą ir 29 minutes, ne 23:00 UTC
Prognozė galioja nuo 19 metu 00 UTC su 19 metu 24 UTC
Vėjas 8 kt iš Pietryčių
Matomumas 10 km arba daugiau
nėra debesų žemiau 1500 m ir nėra kamuolinių lietaus debesų
Tikimybė 30% :
Laikinai
nuo 19 metu 12 UTC su 19 metu 18 UTC
Vėjas 11 kt iš Šiaurės/Šiaurės Vakarų
Mažai debesys ne aukštis 2300 ft, Liūtiniai kamuoliniai debesys.

TAF: DABC 182300Z 1900/1924 13008KT CAVOK PROB30 TEMPO 1912/1918 33011KT FEW023CB

Orai ataskaitas ir orų prognozės (METAR, TAF).

turimą stotys yra geltonos ir raudonos taškus žemėlapyje.

Perkelti pele per norėdami pamatyti stoties vardą.

Tada spustelėkite, norėdami matyti oro stebėjimo ir prognozės.

Norėdami pakeisti žemėlapį: spustelėkite ant žalios mygtukų su juodo kryžiaus žemyn,; žalią mygtuką su brūkšneliu, jei norite nutolinti; arba žalių rodyklių gretimoms žemėlapius.


METAR-TAF: